createdAt,value
2023-05-01T00:00:31.847Z,2.70
2023-05-01T00:05:31.850Z,2.70
2023-05-01T00:10:31.841Z,2.70
2023-05-01T00:15:31.859Z,2.70
2023-05-01T00:20:31.844Z,2.70
2023-05-01T00:25:31.833Z,2.70
2023-05-01T00:30:31.861Z,2.30
2023-05-01T00:35:31.858Z,2.30
2023-05-01T00:45:31.892Z,2.60
2023-05-01T00:50:31.876Z,2.60
2023-05-01T00:55:31.843Z,2.60
2023-05-01T01:00:31.893Z,2.80
2023-05-01T01:15:32.047Z,2.30
2023-05-01T01:20:31.882Z,2.30
2023-05-01T01:30:31.881Z,2.60
2023-05-01T01:35:31.874Z,2.60
2023-05-01T01:40:31.872Z,2.60
2023-05-01T01:45:31.888Z,2.20
2023-05-01T01:50:31.901Z,2.20
2023-05-01T01:55:31.878Z,2.20
2023-05-01T02:00:31.875Z,2.80
2023-05-01T02:10:31.976Z,2.80
2023-05-01T02:15:31.894Z,2.60
2023-05-01T02:20:31.874Z,2.60
2023-05-01T02:25:31.911Z,2.60
2023-05-01T02:30:31.901Z,2.60
2023-05-01T02:35:31.884Z,2.60
2023-05-01T02:40:31.927Z,2.60
2023-05-01T02:55:31.914Z,2.50
2023-05-01T03:00:31.899Z,2.70
2023-05-01T03:05:31.884Z,2.70
2023-05-01T03:10:31.895Z,2.70
2023-05-01T03:15:31.919Z,2.80
2023-05-01T03:20:31.913Z,2.80
2023-05-01T03:30:31.925Z,2.70
2023-05-01T03:35:31.967Z,2.70
2023-05-01T03:45:31.934Z,2.90
2023-05-01T03:50:31.917Z,2.90
2023-05-01T03:55:31.911Z,2.90
2023-05-01T04:00:31.965Z,3.00
2023-05-01T04:05:31.927Z,3.00
2023-05-01T04:10:31.916Z,3.00
2023-05-01T04:20:31.943Z,3.10
2023-05-01T04:30:31.927Z,2.70
2023-05-01T04:40:31.915Z,2.70
2023-05-01T04:45:31.949Z,3.10
2023-05-01T04:55:31.920Z,3.10
2023-05-01T05:00:31.940Z,2.70
2023-05-01T05:05:31.944Z,2.70
2023-05-01T05:10:31.947Z,2.70
2023-05-01T05:15:31.938Z,3.50
2023-05-01T05:20:31.952Z,3.50
2023-05-01T05:25:31.961Z,3.50
2023-05-01T05:30:31.953Z,3.40
2023-05-01T05:50:31.953Z,2.90
2023-05-01T05:55:31.943Z,2.90
2023-05-01T06:00:32.007Z,3.60
2023-05-01T06:05:32.070Z,3.60
2023-05-01T06:10:32.021Z,3.60
2023-05-01T06:15:33.237Z,3.30
2023-05-01T06:20:31.967Z,3.30
2023-05-01T06:25:32.018Z,3.30
2023-05-01T06:30:31.970Z,3.00
2023-05-01T06:35:31.970Z,3.00
2023-05-01T06:40:31.975Z,3.00
2023-05-01T06:45:31.954Z,3.50
2023-05-01T06:50:31.967Z,3.50
2023-05-01T06:55:33.727Z,3.50
2023-05-01T07:00:32.015Z,3.70
2023-05-01T07:05:31.977Z,3.70
2023-05-01T07:10:31.972Z,3.70
2023-05-01T07:20:31.998Z,3.60
2023-05-01T07:25:32.009Z,3.60
2023-05-01T07:30:32.019Z,3.10
2023-05-01T07:35:32.011Z,3.10
2023-05-01T07:40:32.000Z,3.10
2023-05-01T07:45:32.033Z,3.10
2023-05-01T07:55:32.013Z,3.10
2023-05-01T08:00:31.982Z,3.70
2023-05-01T08:05:32.002Z,3.70
2023-05-01T08:10:31.997Z,3.70
2023-05-01T08:15:32.027Z,4.70
2023-05-01T08:20:32.045Z,4.70
2023-05-01T08:25:31.992Z,4.70
2023-05-01T08:30:32.032Z,4.50
2023-05-01T08:35:32.010Z,4.50
2023-05-01T08:40:32.004Z,4.50
2023-05-01T08:45:32.028Z,4.40
2023-05-01T08:50:32.030Z,4.40
2023-05-01T09:00:32.019Z,3.30
2023-05-01T09:05:32.025Z,3.30
2023-05-01T09:10:33.019Z,3.30
2023-05-01T09:15:32.022Z,4.10
2023-05-01T09:20:32.031Z,4.10
2023-05-01T09:25:32.023Z,4.10
2023-05-01T09:30:32.030Z,3.90
2023-05-01T09:35:32.022Z,3.90
2023-05-01T09:40:32.037Z,3.90
2023-05-01T09:45:32.022Z,4.10
2023-05-01T09:50:32.033Z,4.10
2023-05-01T09:55:32.066Z,4.10
2023-05-01T10:00:32.034Z,3.50
2023-05-01T10:05:32.045Z,3.50
2023-05-01T10:10:32.036Z,3.50
2023-05-01T10:15:32.041Z,3.60
2023-05-01T10:20:32.067Z,3.60
2023-05-01T10:25:32.054Z,3.60
2023-05-01T10:30:32.036Z,3.60
2023-05-01T10:35:32.047Z,3.60
2023-05-01T10:40:32.064Z,3.60
2023-05-01T10:45:33.832Z,3.20
2023-05-01T10:50:32.042Z,3.20
2023-05-01T10:55:32.062Z,3.20
2023-05-01T11:00:32.064Z,3.00
2023-05-01T11:05:38.481Z,3.00
2023-05-01T11:10:32.055Z,3.00
2023-05-01T11:15:32.055Z,3.30
2023-05-01T11:20:32.068Z,3.30
2023-05-01T11:30:32.070Z,3.20
2023-05-01T11:35:32.078Z,3.20
2023-05-01T11:40:32.090Z,3.20
2023-05-01T11:45:32.156Z,3.20
2023-05-01T11:50:32.098Z,3.20
2023-05-01T11:55:32.112Z,3.20
2023-05-01T12:00:32.085Z,3.80
2023-05-01T12:05:32.122Z,3.80
2023-05-01T12:10:34.042Z,3.80
2023-05-01T12:15:32.113Z,3.10
2023-05-01T12:20:32.126Z,3.10
2023-05-01T12:25:32.083Z,3.10
2023-05-01T12:30:32.097Z,3.20
2023-05-01T12:35:32.106Z,3.20
2023-05-01T12:45:32.099Z,2.90
2023-05-01T13:00:32.093Z,3.60
2023-05-01T13:05:32.142Z,3.60
2023-05-01T13:10:32.123Z,3.60
2023-05-01T13:15:32.135Z,4.50
2023-05-01T13:20:32.102Z,4.50
2023-05-01T13:25:32.112Z,4.50
2023-05-01T13:30:32.158Z,2.00
2023-05-01T13:35:32.145Z,2.00
2023-05-01T13:40:32.106Z,2.00
2023-05-01T13:45:32.202Z,1.70
2023-05-01T13:50:32.131Z,1.70
2023-05-01T13:55:32.135Z,1.70
2023-05-01T14:00:32.121Z,2.10
2023-05-01T14:05:32.124Z,2.10
2023-05-01T14:10:32.133Z,2.10
2023-05-01T14:15:32.124Z,2.50
2023-05-01T14:20:32.144Z,2.50
2023-05-01T14:25:32.127Z,2.50
2023-05-01T14:30:32.116Z,2.70
2023-05-01T14:35:32.128Z,2.70
2023-05-01T14:40:32.143Z,2.70
2023-05-01T14:45:32.163Z,3.40
2023-05-01T14:50:32.161Z,3.40
2023-05-01T14:55:32.151Z,3.40
2023-05-01T15:00:32.166Z,3.20
2023-05-01T15:10:32.155Z,3.20
2023-05-01T15:15:32.151Z,2.70
2023-05-01T15:25:32.175Z,2.70
2023-05-01T15:30:32.174Z,3.30
2023-05-01T15:35:32.185Z,3.30
2023-05-01T15:45:32.260Z,3.50
2023-05-01T15:50:32.183Z,3.50
2023-05-01T15:55:32.196Z,3.50
2023-05-01T16:00:32.171Z,2.60
2023-05-01T16:05:32.187Z,2.60
2023-05-01T16:10:32.198Z,2.60
2023-05-01T16:15:32.203Z,2.50
2023-05-01T16:20:32.179Z,2.50
2023-05-01T16:25:32.202Z,2.50
2023-05-01T16:30:32.178Z,3.20
2023-05-01T16:35:32.193Z,3.20
2023-05-01T16:40:32.240Z,3.20
2023-05-01T16:45:32.200Z,3.60
2023-05-01T16:50:32.219Z,3.60
2023-05-01T16:55:32.196Z,3.60
2023-05-01T17:00:32.206Z,3.90
2023-05-01T17:05:32.245Z,3.90
2023-05-01T17:10:32.210Z,3.90
2023-05-01T17:15:32.287Z,3.60
2023-05-01T17:25:32.235Z,3.60
2023-05-01T17:30:32.212Z,3.80
2023-05-01T17:35:32.208Z,3.80
2023-05-01T17:40:33.512Z,3.80
2023-05-01T17:50:32.220Z,3.80
2023-05-01T17:55:32.373Z,3.80
2023-05-01T18:00:32.238Z,3.60
2023-05-01T18:05:32.256Z,3.60
2023-05-01T18:10:32.284Z,3.60
2023-05-01T18:15:32.241Z,3.30
2023-05-01T18:20:32.224Z,3.30
2023-05-01T18:25:32.232Z,3.30
2023-05-01T18:40:32.255Z,4.90
2023-05-01T18:45:32.260Z,6.20
2023-05-01T18:50:32.245Z,6.20
2023-05-01T18:55:32.269Z,6.20
2023-05-01T19:00:32.279Z,7.00
2023-05-01T19:05:32.293Z,7.00
2023-05-01T19:20:32.258Z,6.70
2023-05-01T19:25:32.272Z,6.70
2023-05-01T19:35:32.260Z,6.90
2023-05-01T19:40:32.280Z,6.90
2023-05-01T19:45:32.363Z,7.20
2023-05-01T19:50:33.384Z,7.20
2023-05-01T19:55:32.295Z,7.20
2023-05-01T20:00:32.276Z,6.80
2023-05-01T20:05:32.326Z,6.80
2023-05-01T20:10:32.297Z,6.80
2023-05-01T20:15:32.260Z,8.30
2023-05-01T20:20:32.275Z,8.30
2023-05-01T20:25:32.289Z,8.30
2023-05-01T20:30:32.297Z,8.60
2023-05-01T20:35:32.278Z,8.60
2023-05-01T20:45:32.292Z,10.10
2023-05-01T20:55:32.314Z,10.10
2023-05-01T21:00:32.290Z,11.50
2023-05-01T21:05:32.303Z,11.50
2023-05-01T21:10:32.317Z,11.50
2023-05-01T21:15:32.311Z,10.90
2023-05-01T21:20:32.310Z,10.90
2023-05-01T21:25:32.311Z,10.90
2023-05-01T21:35:32.316Z,11.70
2023-05-01T21:45:32.311Z,12.20
2023-05-01T21:50:32.309Z,12.20
2023-05-01T21:55:32.329Z,12.20
2023-05-01T22:00:32.335Z,11.90
2023-05-01T22:10:32.316Z,11.90
2023-05-01T22:20:32.330Z,12.00
2023-05-01T22:40:32.342Z,10.40
2023-05-01T22:50:32.366Z,11.30
2023-05-01T22:55:32.359Z,11.30
2023-05-01T23:00:32.360Z,8.30
2023-05-01T23:05:32.339Z,8.30
2023-05-01T23:15:32.420Z,7.70
2023-05-01T23:20:32.353Z,7.70
2023-05-01T23:25:32.356Z,7.70
2023-05-01T23:30:32.386Z,7.30
2023-05-01T23:35:32.349Z,7.30
2023-05-01T23:40:32.356Z,7.30
2023-05-01T23:45:32.361Z,7.40
2023-05-01T23:55:32.380Z,7.40
